Aérodrome :
LOGIN :

S'inscrire | Disclaimer

   EN    FR    IT 

 










Légende :    VFR   VFR Marginal   IFR   IFR Intensif   IFR Très Intensif
Visi : 
Plafond : 
>= 8 km
>= 3000ft
5 à 8 km
1000 à 3000 ft
1500m à 5 km
500 à 1000 ft
800 à 1500m
200 à 500 ft
< 800m
< 200 ft
Symboles :   Orages  Brouillard  Fortes neiges  Fortes précipitations  Vent > 20 kt
SIGMETs :   Divers  Orages  Givrage  Turbulence  Onde Orograph.  Cendres Volcan.







- Altitude de l'aérodrome : 52 ft
- Code IATA : IOM
- Voir les cartes d'approche


EGNS - Isle of Man

DERNIER METAR :
  • 171120Z 26019KT 9999 FEW004 BKN006 OVC012 10/09 Q1015 BECMG SCT006

METARs EXPIRÉS :
  • 171050Z 25017KT 210V280 9999 FEW004 BKN006 OVC012 10/09 Q1015 BECMG SCT015
  • 171020Z 25017KT 210V280 9999 -RA BKN005 OVC012 09/09 Q1016 BECMG SCT015 NSW
  • 170950Z 24017KT 190V260 7000 -RA BKN004 OVC012 09/09 Q1016 BECMG 9999 NSW SCT015
  • 170920Z 23018KT 200V260 3200 RA BKN004 OVC012 09/09 Q1016 BECMG 26020KT 9999 NSW SCT015
  • 170850Z 22020KT 3000 +RA BKN004 OVC015 09/09 Q1016 NOSIG

TAF TAF EGNS
Valide du 17 à 12h jusqu'au 17 à 21h UTC


171100Z 1712/1721 26020KT 9999 SCT006 BKN020
TEMPO 1712/1715 BKN006
BECMG 1712/1715 30018KT
Pas de NOTAMs connus pour ce terrain.



MET'MAP, la Météo Aéronautique d'un coup d'oeil ! - Copyright ORBIFLY Décembre 2007 - Disclaimer

ORBIFLY MET'MAP TEAM :

Programmation & Développement : Alexandra Zaïnal
Conception & Développement : Baudouin d'Aumeries
Co-Programmation & Développement : Marc-Olivier Méhu
Soutien technique & logistique : Manuel Goepfert

Contact : metmap@orbifly.com




SOURCES & CREDITS :

   NOAA